< < Back
Terminal Aerodrome Forecast


Current Version              Previous Versions:   1  2  3  4  5  6  7  8  9  

Terminal Aerodrome Forecast

278
FTUS42 KFFC 260100 AAA
TAFATL
TAF AMD
KATL 260140Z 2602/2706 30007KT P6SM FEW040
     FM260600 31005KT P6SM SCT025
     FM261300 32008KT P6SM FEW250
     FM270000 31003KT P6SM SKC=

Latest METAR

687
SAUS70 KWBC 260256
MTRATL
METAR KATL 260252Z 30005KT 10SM CLR 17/10 A3005 RMK AO2 SLP170 T01720100
51007


USA.gov is the U.S. government's official web portal to all federal, state and local government web resources and services.